sensor_id;sensor_type;location;lat;lon;timestamp;P1;durP1;ratioP1;P2;durP2;ratioP2
9106;SDS011;4589;48.690;8.952;2024-03-08T00:00:40;133.15;;;41.33;;
9106;SDS011;4589;48.690;8.952;2024-03-08T00:03:08;126.30;;;41.60;;
9106;SDS011;4589;48.690;8.952;2024-03-08T00:05:35;137.18;;;42.88;;
9106;SDS011;4589;48.690;8.952;2024-03-08T00:08:01;117.72;;;42.22;;
9106;SDS011;4589;48.690;8.952;2024-03-08T00:10:27;120.40;;;39.27;;
9106;SDS011;4589;48.690;8.952;2024-03-08T00:12:54;124.28;;;39.28;;
9106;SDS011;4589;48.690;8.952;2024-03-08T00:15:19;130.07;;;39.30;;
9106;SDS011;4589;48.690;8.952;2024-03-08T00:17:47;138.43;;;42.40;;
9106;SDS011;4589;48.690;8.952;2024-03-08T00:20:14;117.43;;;39.45;;
9106;SDS011;4589;48.690;8.952;2024-03-08T00:22:40;127.25;;;39.50;;
9106;SDS011;4589;48.690;8.952;2024-03-08T00:25:06;137.90;;;40.37;;
9106;SDS011;4589;48.690;8.952;2024-03-08T00:27:35;120.18;;;40.20;;
9106;SDS011;4589;48.690;8.952;2024-03-08T00:30:01;125.22;;;41.67;;
9106;SDS011;4589;48.690;8.952;2024-03-08T00:32:27;142.75;;;40.05;;
9106;SDS011;4589;48.690;8.952;2024-03-08T00:34:53;113.00;;;37.50;;
9106;SDS011;4589;48.690;8.952;2024-03-08T00:37:22;109.03;;;38.33;;
9106;SDS011;4589;48.690;8.952;2024-03-08T00:39:51;129.25;;;40.05;;
9106;SDS011;4589;48.690;8.952;2024-03-08T00:42:18;130.48;;;37.80;;
9106;SDS011;4589;48.690;8.952;2024-03-08T00:44:44;112.20;;;36.35;;
9106;SDS011;4589;48.690;8.952;2024-03-08T00:47:10;137.63;;;42.93;;
9106;SDS011;4589;48.690;8.952;2024-03-08T00:49:36;131.90;;;38.80;;
9106;SDS011;4589;48.690;8.952;2024-03-08T00:52:03;125.18;;;41.08;;
9106;SDS011;4589;48.690;8.952;2024-03-08T00:54:32;160.93;;;42.95;;
9106;SDS011;4589;48.690;8.952;2024-03-08T00:56:58;106.33;;;36.53;;
9106;SDS011;4589;48.690;8.952;2024-03-08T00:59:23;101.43;;;36.77;;
9106;SDS011;4589;48.690;8.952;2024-03-08T01:01:49;129.20;;;38.57;;
9106;SDS011;4589;48.690;8.952;2024-03-08T01:04:14;120.07;;;36.40;;
9106;SDS011;4589;48.690;8.952;2024-03-08T01:06:40;121.97;;;40.23;;
9106;SDS011;4589;48.690;8.952;2024-03-08T01:09:07;124.53;;;38.83;;
9106;SDS011;4589;48.690;8.952;2024-03-08T01:11:34;133.07;;;38.45;;
9106;SDS011;4589;48.690;8.952;2024-03-08T01:13:59;122.47;;;38.07;;
9106;SDS011;4589;48.690;8.952;2024-03-08T01:16:25;126.77;;;40.53;;
9106;SDS011;4589;48.690;8.952;2024-03-08T01:18:50;134.87;;;41.83;;
9106;SDS011;4589;48.690;8.952;2024-03-08T01:21:16;117.43;;;39.73;;
9106;SDS011;4589;48.690;8.952;2024-03-08T01:23:42;124.83;;;38.37;;
9106;SDS011;4589;48.690;8.952;2024-03-08T01:26:07;133.37;;;37.83;;
9106;SDS011;4589;48.690;8.952;2024-03-08T01:28:33;102.33;;;34.87;;
9106;SDS011;4589;48.690;8.952;2024-03-08T01:30:59;123.75;;;38.15;;
9106;SDS011;4589;48.690;8.952;2024-03-08T01:33:25;108.53;;;35.60;;
9106;SDS011;4589;48.690;8.952;2024-03-08T01:35:52;116.68;;;36.53;;
9106;SDS011;4589;48.690;8.952;2024-03-08T01:38:18;142.55;;;40.75;;
9106;SDS011;4589;48.690;8.952;2024-03-08T01:40:44;128.77;;;37.10;;
9106;SDS011;4589;48.690;8.952;2024-03-08T01:43:17;152.27;;;39.70;;
9106;SDS011;4589;48.690;8.952;2024-03-08T01:45:44;117.47;;;39.38;;
9106;SDS011;4589;48.690;8.952;2024-03-08T01:48:09;132.40;;;38.60;;
9106;SDS011;4589;48.690;8.952;2024-03-08T01:50:35;125.37;;;38.50;;
9106;SDS011;4589;48.690;8.952;2024-03-08T01:53:01;148.57;;;37.60;;
9106;SDS011;4589;48.690;8.952;2024-03-08T01:55:28;118.38;;;39.42;;
9106;SDS011;4589;48.690;8.952;2024-03-08T01:57:53;120.77;;;38.83;;
9106;SDS011;4589;48.690;8.952;2024-03-08T02:00:19;132.23;;;39.17;;
9106;SDS011;4589;48.690;8.952;2024-03-08T02:02:46;124.60;;;36.53;;
9106;SDS011;4589;48.690;8.952;2024-03-08T02:05:12;129.02;;;35.97;;
9106;SDS011;4589;48.690;8.952;2024-03-08T02:07:40;137.48;;;37.50;;
9106;SDS011;4589;48.690;8.952;2024-03-08T02:10:09;139.15;;;37.35;;
9106;SDS011;4589;48.690;8.952;2024-03-08T02:12:35;116.57;;;36.33;;
9106;SDS011;4589;48.690;8.952;2024-03-08T02:15:01;101.50;;;33.63;;
9106;SDS011;4589;48.690;8.952;2024-03-08T02:17:26;118.23;;;33.80;;
9106;SDS011;4589;48.690;8.952;2024-03-08T02:19:52;108.53;;;35.97;;
9106;SDS011;4589;48.690;8.952;2024-03-08T02:22:18;106.40;;;33.90;;
9106;SDS011;4589;48.690;8.952;2024-03-08T02:24:44;118.00;;;36.47;;
9106;SDS011;4589;48.690;8.952;2024-03-08T02:27:10;136.85;;;37.17;;
9106;SDS011;4589;48.690;8.952;2024-03-08T02:29:36;112.45;;;34.85;;
9106;SDS011;4589;48.690;8.952;2024-03-08T02:32:02;127.67;;;37.07;;
9106;SDS011;4589;48.690;8.952;2024-03-08T02:34:28;115.33;;;35.00;;
9106;SDS011;4589;48.690;8.952;2024-03-08T02:36:56;106.75;;;31.77;;
9106;SDS011;4589;48.690;8.952;2024-03-08T02:39:21;125.77;;;35.23;;
9106;SDS011;4589;48.690;8.952;2024-03-08T02:41:47;108.03;;;36.13;;
9106;SDS011;4589;48.690;8.952;2024-03-08T02:44:13;123.57;;;36.67;;
9106;SDS011;4589;48.690;8.952;2024-03-08T02:46:39;123.85;;;34.47;;
9106;SDS011;4589;48.690;8.952;2024-03-08T02:49:05;98.87;;;33.47;;
9106;SDS011;4589;48.690;8.952;2024-03-08T02:51:32;118.22;;;34.80;;
9106;SDS011;4589;48.690;8.952;2024-03-08T02:54:00;108.03;;;36.40;;
9106;SDS011;4589;48.690;8.952;2024-03-08T02:56:25;104.03;;;34.20;;
9106;SDS011;4589;48.690;8.952;2024-03-08T02:58:51;122.97;;;35.67;;
9106;SDS011;4589;48.690;8.952;2024-03-08T03:01:17;117.73;;;38.07;;
9106;SDS011;4589;48.690;8.952;2024-03-08T03:03:45;106.00;;;36.45;;
9106;SDS011;4589;48.690;8.952;2024-03-08T03:06:12;99.75;;;35.47;;
9106;SDS011;4589;48.690;8.952;2024-03-08T03:08:37;121.97;;;39.37;;
9106;SDS011;4589;48.690;8.952;2024-03-08T03:11:03;121.20;;;37.37;;
9106;SDS011;4589;48.690;8.952;2024-03-08T03:13:29;104.43;;;35.00;;
9106;SDS011;4589;48.690;8.952;2024-03-08T03:15:54;126.67;;;38.13;;
9106;SDS011;4589;48.690;8.952;2024-03-08T03:18:22;104.47;;;36.53;;
9106;SDS011;4589;48.690;8.952;2024-03-08T03:20:48;122.17;;;37.10;;
9106;SDS011;4589;48.690;8.952;2024-03-08T03:23:14;126.47;;;35.33;;
9106;SDS011;4589;48.690;8.952;2024-03-08T03:25:45;104.80;;;34.70;;
9106;SDS011;4589;48.690;8.952;2024-03-08T03:28:11;112.70;;;36.73;;
9106;SDS011;4589;48.690;8.952;2024-03-08T03:30:39;137.90;;;37.78;;
9106;SDS011;4589;48.690;8.952;2024-03-08T03:33:05;125.50;;;38.40;;
9106;SDS011;4589;48.690;8.952;2024-03-08T03:35:31;124.28;;;40.35;;
9106;SDS011;4589;48.690;8.952;2024-03-08T03:37:57;117.33;;;36.90;;
9106;SDS011;4589;48.690;8.952;2024-03-08T03:40:32;143.48;;;37.60;;
9106;SDS011;4589;48.690;8.952;2024-03-08T03:42:59;106.72;;;35.72;;
9106;SDS011;4589;48.690;8.952;2024-03-08T03:45:25;111.68;;;36.72;;
9106;SDS011;4589;48.690;8.952;2024-03-08T03:47:51;103.00;;;35.30;;
9106;SDS011;4589;48.690;8.952;2024-03-08T03:50:17;116.77;;;37.80;;
9106;SDS011;4589;48.690;8.952;2024-03-08T03:52:44;117.28;;;36.75;;
9106;SDS011;4589;48.690;8.952;2024-03-08T03:55:10;123.72;;;38.78;;
9106;SDS011;4589;48.690;8.952;2024-03-08T03:57:37;117.90;;;40.28;;
9106;SDS011;4589;48.690;8.952;2024-03-08T04:00:03;135.15;;;37.65;;
9106;SDS011;4589;48.690;8.952;2024-03-08T04:02:29;106.03;;;35.95;;
9106;SDS011;4589;48.690;8.952;2024-03-08T04:04:55;116.67;;;38.20;;
9106;SDS011;4589;48.690;8.952;2024-03-08T04:07:20;117.93;;;37.17;;
9106;SDS011;4589;48.690;8.952;2024-03-08T04:09:46;129.33;;;38.43;;
9106;SDS011;4589;48.690;8.952;2024-03-08T04:12:12;122.47;;;37.10;;
9106;SDS011;4589;48.690;8.952;2024-03-08T04:14:40;122.28;;;38.55;;
9106;SDS011;4589;48.690;8.952;2024-03-08T04:17:06;109.32;;;37.65;;
9106;SDS011;4589;48.690;8.952;2024-03-08T04:19:34;104.03;;;35.58;;
9106;SDS011;4589;48.690;8.952;2024-03-08T04:22:00;126.90;;;36.53;;
9106;SDS011;4589;48.690;8.952;2024-03-08T04:24:27;133.18;;;39.30;;
9106;SDS011;4589;48.690;8.952;2024-03-08T04:26:52;126.30;;;38.20;;
9106;SDS011;4589;48.690;8.952;2024-03-08T04:29:18;121.43;;;34.83;;
9106;SDS011;4589;48.690;8.952;2024-03-08T04:31:44;126.60;;;36.10;;
9106;SDS011;4589;48.690;8.952;2024-03-08T04:34:09;117.67;;;36.93;;
9106;SDS011;4589;48.690;8.952;2024-03-08T04:36:35;128.80;;;37.85;;
9106;SDS011;4589;48.690;8.952;2024-03-08T04:39:01;123.03;;;38.93;;
9106;SDS011;4589;48.690;8.952;2024-03-08T04:41:27;116.20;;;36.38;;
9106;SDS011;4589;48.690;8.952;2024-03-08T04:43:53;122.87;;;36.03;;
9106;SDS011;4589;48.690;8.952;2024-03-08T04:46:18;135.83;;;37.90;;
9106;SDS011;4589;48.690;8.952;2024-03-08T04:48:44;125.27;;;39.00;;
9106;SDS011;4589;48.690;8.952;2024-03-08T04:51:09;128.73;;;38.00;;
9106;SDS011;4589;48.690;8.952;2024-03-08T04:53:35;104.70;;;38.40;;
9106;SDS011;4589;48.690;8.952;2024-03-08T04:56:01;117.50;;;38.07;;
9106;SDS011;4589;48.690;8.952;2024-03-08T04:58:31;120.20;;;36.67;;
9106;SDS011;4589;48.690;8.952;2024-03-08T05:00:59;142.45;;;39.58;;
9106;SDS011;4589;48.690;8.952;2024-03-08T05:03:25;127.00;;;37.97;;
9106;SDS011;4589;48.690;8.952;2024-03-08T05:05:50;122.43;;;35.10;;
9106;SDS011;4589;48.690;8.952;2024-03-08T05:08:16;123.13;;;38.37;;
9106;SDS011;4589;48.690;8.952;2024-03-08T05:10:44;128.38;;;36.55;;
9106;SDS011;4589;48.690;8.952;2024-03-08T05:13:10;131.73;;;39.10;;
9106;SDS011;4589;48.690;8.952;2024-03-08T05:15:35;143.53;;;38.60;;
9106;SDS011;4589;48.690;8.952;2024-03-08T05:18:01;143.67;;;41.07;;
9106;SDS011;4589;48.690;8.952;2024-03-08T05:20:27;119.90;;;38.00;;
9106;SDS011;4589;48.690;8.952;2024-03-08T05:22:52;129.10;;;38.10;;
9106;SDS011;4589;48.690;8.952;2024-03-08T05:25:18;101.73;;;35.07;;
9106;SDS011;4589;48.690;8.952;2024-03-08T05:27:43;108.53;;;34.60;;
9106;SDS011;4589;48.690;8.952;2024-03-08T05:30:09;128.87;;;37.40;;
9106;SDS011;4589;48.690;8.952;2024-03-08T05:32:40;131.63;;;39.70;;
9106;SDS011;4589;48.690;8.952;2024-03-08T05:35:09;111.90;;;37.80;;
9106;SDS011;4589;48.690;8.952;2024-03-08T05:37:36;128.20;;;39.17;;
9106;SDS011;4589;48.690;8.952;2024-03-08T05:40:02;127.25;;;38.67;;
9106;SDS011;4589;48.690;8.952;2024-03-08T05:42:28;122.70;;;39.53;;
9106;SDS011;4589;48.690;8.952;2024-03-08T05:44:54;123.07;;;39.53;;
9106;SDS011;4589;48.690;8.952;2024-03-08T05:47:22;126.38;;;39.22;;
9106;SDS011;4589;48.690;8.952;2024-03-08T05:49:47;131.27;;;39.70;;
9106;SDS011;4589;48.690;8.952;2024-03-08T05:52:13;158.43;;;41.97;;
9106;SDS011;4589;48.690;8.952;2024-03-08T05:54:39;122.45;;;38.40;;
9106;SDS011;4589;48.690;8.952;2024-03-08T05:57:06;127.15;;;40.45;;
9106;SDS011;4589;48.690;8.952;2024-03-08T05:59:31;165.87;;;44.60;;
9106;SDS011;4589;48.690;8.952;2024-03-08T06:01:57;111.20;;;39.87;;
9106;SDS011;4589;48.690;8.952;2024-03-08T06:04:22;147.73;;;40.13;;
9106;SDS011;4589;48.690;8.952;2024-03-08T06:06:48;143.57;;;39.43;;
9106;SDS011;4589;48.690;8.952;2024-03-08T06:09:16;129.90;;;41.28;;
9106;SDS011;4589;48.690;8.952;2024-03-08T06:11:47;149.15;;;41.75;;
9106;SDS011;4589;48.690;8.952;2024-03-08T06:14:13;124.13;;;39.77;;
9106;SDS011;4589;48.690;8.952;2024-03-08T06:16:43;145.73;;;45.85;;
9106;SDS011;4589;48.690;8.952;2024-03-08T06:19:09;157.82;;;45.72;;
9106;SDS011;4589;48.690;8.952;2024-03-08T06:21:35;158.63;;;42.27;;
9106;SDS011;4589;48.690;8.952;2024-03-08T06:24:01;160.77;;;42.38;;
9106;SDS011;4589;48.690;8.952;2024-03-08T06:26:27;125.27;;;40.30;;
9106;SDS011;4589;48.690;8.952;2024-03-08T06:28:53;159.30;;;39.72;;
9106;SDS011;4589;48.690;8.952;2024-03-08T06:31:19;141.30;;;40.83;;
9106;SDS011;4589;48.690;8.952;2024-03-08T06:33:45;148.37;;;42.90;;
9106;SDS011;4589;48.690;8.952;2024-03-08T06:36:10;144.97;;;41.17;;
9106;SDS011;4589;48.690;8.952;2024-03-08T06:38:37;171.88;;;42.65;;
9106;SDS011;4589;48.690;8.952;2024-03-08T06:41:07;144.02;;;40.50;;
9106;SDS011;4589;48.690;8.952;2024-03-08T06:43:34;157.63;;;41.40;;
9106;SDS011;4589;48.690;8.952;2024-03-08T06:45:59;165.37;;;43.17;;
9106;SDS011;4589;48.690;8.952;2024-03-08T06:48:25;178.63;;;44.37;;
9106;SDS011;4589;48.690;8.952;2024-03-08T06:50:50;162.87;;;43.10;;
9106;SDS011;4589;48.690;8.952;2024-03-08T06:53:16;135.73;;;41.30;;
9106;SDS011;4589;48.690;8.952;2024-03-08T06:55:45;151.98;;;42.78;;
9106;SDS011;4589;48.690;8.952;2024-03-08T06:58:10;166.50;;;43.10;;
9106;SDS011;4589;48.690;8.952;2024-03-08T07:00:36;149.80;;;43.60;;
9106;SDS011;4589;48.690;8.952;2024-03-08T07:03:02;136.98;;;43.38;;
9106;SDS011;4589;48.690;8.952;2024-03-08T07:05:28;153.70;;;43.93;;
9106;SDS011;4589;48.690;8.952;2024-03-08T07:07:55;159.98;;;45.05;;
9106;SDS011;4589;48.690;8.952;2024-03-08T07:10:21;136.23;;;40.93;;
9106;SDS011;4589;48.690;8.952;2024-03-08T07:12:49;133.40;;;41.90;;
9106;SDS011;4589;48.690;8.952;2024-03-08T07:15:20;146.20;;;42.75;;
9106;SDS011;4589;48.690;8.952;2024-03-08T07:17:48;144.23;;;41.88;;
9106;SDS011;4589;48.690;8.952;2024-03-08T07:20:14;142.00;;;39.07;;
9106;SDS011;4589;48.690;8.952;2024-03-08T07:22:43;133.93;;;40.47;;
9106;SDS011;4589;48.690;8.952;2024-03-08T07:25:12;150.13;;;42.47;;
9106;SDS011;4589;48.690;8.952;2024-03-08T07:27:47;134.73;;;40.65;;
9106;SDS011;4589;48.690;8.952;2024-03-08T07:30:13;152.85;;;40.63;;
9106;SDS011;4589;48.690;8.952;2024-03-08T07:33:03;115.97;;;35.10;;
9106;SDS011;4589;48.690;8.952;2024-03-08T07:35:29;132.68;;;40.80;;
9106;SDS011;4589;48.690;8.952;2024-03-08T07:37:55;150.73;;;39.47;;
9106;SDS011;4589;48.690;8.952;2024-03-08T07:40:21;113.13;;;35.70;;
9106;SDS011;4589;48.690;8.952;2024-03-08T07:42:48;127.63;;;38.42;;
9106;SDS011;4589;48.690;8.952;2024-03-08T07:45:14;141.93;;;37.63;;
9106;SDS011;4589;48.690;8.952;2024-03-08T07:47:41;124.40;;;36.67;;
9106;SDS011;4589;48.690;8.952;2024-03-08T07:50:06;96.93;;;29.67;;
9106;SDS011;4589;48.690;8.952;2024-03-08T07:52:35;133.30;;;38.08;;
9106;SDS011;4589;48.690;8.952;2024-03-08T07:55:04;115.00;;;34.30;;
9106;SDS011;4589;48.690;8.952;2024-03-08T07:57:30;103.65;;;32.40;;
9106;SDS011;4589;48.690;8.952;2024-03-08T07:59:56;131.40;;;35.50;;
9106;SDS011;4589;48.690;8.952;2024-03-08T08:02:22;125.90;;;35.50;;
9106;SDS011;4589;48.690;8.952;2024-03-08T08:04:48;106.97;;;33.87;;
9106;SDS011;4589;48.690;8.952;2024-03-08T08:07:13;116.53;;;34.20;;
9106;SDS011;4589;48.690;8.952;2024-03-08T08:09:39;118.33;;;40.37;;
9106;SDS011;4589;48.690;8.952;2024-03-08T08:12:07;133.52;;;37.95;;
9106;SDS011;4589;48.690;8.952;2024-03-08T08:14:35;132.77;;;34.85;;
9106;SDS011;4589;48.690;8.952;2024-03-08T08:17:01;109.80;;;36.33;;
9106;SDS011;4589;48.690;8.952;2024-03-08T08:19:29;119.05;;;39.17;;
9106;SDS011;4589;48.690;8.952;2024-03-08T08:21:55;123.57;;;34.25;;
9106;SDS011;4589;48.690;8.952;2024-03-08T08:24:20;108.87;;;34.93;;
9106;SDS011;4589;48.690;8.952;2024-03-08T08:26:47;129.17;;;36.00;;
9106;SDS011;4589;48.690;8.952;2024-03-08T08:29:12;111.40;;;31.70;;
9106;SDS011;4589;48.690;8.952;2024-03-08T08:31:38;113.60;;;31.33;;
9106;SDS011;4589;48.690;8.952;2024-03-08T08:34:04;113.40;;;35.43;;
9106;SDS011;4589;48.690;8.952;2024-03-08T08:36:31;112.75;;;33.83;;
9106;SDS011;4589;48.690;8.952;2024-03-08T08:38:56;92.20;;;28.10;;
9106;SDS011;4589;48.690;8.952;2024-03-08T08:41:23;103.47;;;31.35;;
9106;SDS011;4589;48.690;8.952;2024-03-08T08:43:49;103.10;;;30.33;;
9106;SDS011;4589;48.690;8.952;2024-03-08T08:46:17;102.13;;;32.23;;
9106;SDS011;4589;48.690;8.952;2024-03-08T08:48:43;88.22;;;30.70;;
9106;SDS011;4589;48.690;8.952;2024-03-08T08:51:10;137.68;;;32.50;;
9106;SDS011;4589;48.690;8.952;2024-03-08T08:53:40;83.55;;;28.55;;
9106;SDS011;4589;48.690;8.952;2024-03-08T08:56:11;99.35;;;30.13;;
9106;SDS011;4589;48.690;8.952;2024-03-08T08:58:41;93.00;;;30.85;;
9106;SDS011;4589;48.690;8.952;2024-03-08T09:01:07;126.95;;;34.40;;
9106;SDS011;4589;48.690;8.952;2024-03-08T09:03:34;122.80;;;36.20;;
9106;SDS011;4589;48.690;8.952;2024-03-08T09:06:02;119.63;;;32.03;;
9106;SDS011;4589;48.690;8.952;2024-03-08T09:08:30;101.30;;;31.42;;
9106;SDS011;4589;48.690;8.952;2024-03-08T09:10:56;97.83;;;33.30;;
9106;SDS011;4589;48.690;8.952;2024-03-08T09:13:21;113.27;;;35.23;;
9106;SDS011;4589;48.690;8.952;2024-03-08T09:15:48;113.33;;;35.10;;
9106;SDS011;4589;48.690;8.952;2024-03-08T09:18:13;92.50;;;34.10;;
9106;SDS011;4589;48.690;8.952;2024-03-08T09:20:39;106.33;;;34.70;;
9106;SDS011;4589;48.690;8.952;2024-03-08T09:23:06;105.63;;;33.57;;
9106;SDS011;4589;48.690;8.952;2024-03-08T09:25:33;96.03;;;34.30;;
9106;SDS011;4589;48.690;8.952;2024-03-08T09:27:59;103.17;;;32.97;;
9106;SDS011;4589;48.690;8.952;2024-03-08T09:30:24;123.77;;;34.73;;
9106;SDS011;4589;48.690;8.952;2024-03-08T09:32:50;84.90;;;31.33;;
9106;SDS011;4589;48.690;8.952;2024-03-08T09:35:16;85.30;;;32.30;;
9106;SDS011;4589;48.690;8.952;2024-03-08T09:37:42;105.97;;;33.30;;
9106;SDS011;4589;48.690;8.952;2024-03-08T09:40:07;92.93;;;31.70;;
9106;SDS011;4589;48.690;8.952;2024-03-08T09:42:40;98.17;;;31.73;;
9106;SDS011;4589;48.690;8.952;2024-03-08T09:45:10;94.70;;;33.40;;
9106;SDS011;4589;48.690;8.952;2024-03-08T09:47:38;95.23;;;30.73;;
9106;SDS011;4589;48.690;8.952;2024-03-08T09:50:06;82.63;;;32.70;;
9106;SDS011;4589;48.690;8.952;2024-03-08T09:52:34;100.23;;;33.80;;
9106;SDS011;4589;48.690;8.952;2024-03-08T09:55:09;100.87;;;36.27;;
9106;SDS011;4589;48.690;8.952;2024-03-08T09:57:36;101.70;;;31.70;;
9106;SDS011;4589;48.690;8.952;2024-03-08T10:00:03;107.37;;;33.67;;
9106;SDS011;4589;48.690;8.952;2024-03-08T10:02:44;94.70;;;33.87;;
9106;SDS011;4589;48.690;8.952;2024-03-08T10:05:11;120.07;;;33.87;;
9106;SDS011;4589;48.690;8.952;2024-03-08T10:07:37;104.17;;;33.93;;
9106;SDS011;4589;48.690;8.952;2024-03-08T10:10:03;92.13;;;33.37;;
9106;SDS011;4589;48.690;8.952;2024-03-08T10:12:29;97.17;;;32.50;;
9106;SDS011;4589;48.690;8.952;2024-03-08T10:14:56;95.87;;;34.70;;
9106;SDS011;4589;48.690;8.952;2024-03-08T10:17:23;103.07;;;33.13;;
9106;SDS011;4589;48.690;8.952;2024-03-08T10:19:50;82.50;;;31.43;;
9106;SDS011;4589;48.690;8.952;2024-03-08T10:22:16;97.27;;;30.60;;
9106;SDS011;4589;48.690;8.952;2024-03-08T10:24:44;85.77;;;31.50;;
9106;SDS011;4589;48.690;8.952;2024-03-08T10:27:11;95.47;;;32.40;;
9106;SDS011;4589;48.690;8.952;2024-03-08T10:29:36;90.30;;;31.80;;
9106;SDS011;4589;48.690;8.952;2024-03-08T10:32:04;87.63;;;30.53;;
9106;SDS011;4589;48.690;8.952;2024-03-08T10:34:31;92.33;;;33.70;;
9106;SDS011;4589;48.690;8.952;2024-03-08T10:36:58;90.63;;;32.03;;
9106;SDS011;4589;48.690;8.952;2024-03-08T10:39:28;90.00;;;32.80;;
9106;SDS011;4589;48.690;8.952;2024-03-08T10:42:02;85.07;;;31.80;;
9106;SDS011;4589;48.690;8.952;2024-03-08T10:47:13;88.33;;;33.60;;
9106;SDS011;4589;48.690;8.952;2024-03-08T10:52:28;80.57;;;31.83;;
9106;SDS011;4589;48.690;8.952;2024-03-08T10:54:54;79.30;;;32.23;;
9106;SDS011;4589;48.690;8.952;2024-03-08T10:57:22;79.53;;;29.70;;
9106;SDS011;4589;48.690;8.952;2024-03-08T10:59:49;89.50;;;31.17;;
9106;SDS011;4589;48.690;8.952;2024-03-08T11:02:15;83.70;;;31.40;;
9106;SDS011;4589;48.690;8.952;2024-03-08T11:04:46;70.07;;;29.37;;
9106;SDS011;4589;48.690;8.952;2024-03-08T11:07:14;83.60;;;30.97;;
9106;SDS011;4589;48.690;8.952;2024-03-08T11:09:43;79.40;;;30.13;;
9106;SDS011;4589;48.690;8.952;2024-03-08T11:12:23;77.40;;;30.37;;
9106;SDS011;4589;48.690;8.952;2024-03-08T11:14:51;79.10;;;30.00;;
9106;SDS011;4589;48.690;8.952;2024-03-08T11:17:21;66.20;;;29.17;;
9106;SDS011;4589;48.690;8.952;2024-03-08T11:19:55;78.17;;;29.20;;
9106;SDS011;4589;48.690;8.952;2024-03-08T11:22:32;62.37;;;27.17;;
9106;SDS011;4589;48.690;8.952;2024-03-08T11:24:59;67.67;;;28.57;;
9106;SDS011;4589;48.690;8.952;2024-03-08T11:27:31;68.97;;;27.30;;
9106;SDS011;4589;48.690;8.952;2024-03-08T11:30:01;62.30;;;27.10;;
9106;SDS011;4589;48.690;8.952;2024-03-08T11:32:36;72.00;;;28.50;;
9106;SDS011;4589;48.690;8.952;2024-03-08T11:35:05;59.40;;;26.50;;
9106;SDS011;4589;48.690;8.952;2024-03-08T11:37:33;68.37;;;27.60;;
9106;SDS011;4589;48.690;8.952;2024-03-08T11:39:59;63.80;;;26.80;;
9106;SDS011;4589;48.690;8.952;2024-03-08T11:42:26;63.10;;;27.07;;
9106;SDS011;4589;48.690;8.952;2024-03-08T11:44:52;62.13;;;26.60;;
9106;SDS011;4589;48.690;8.952;2024-03-08T11:47:18;49.33;;;24.90;;
9106;SDS011;4589;48.690;8.952;2024-03-08T11:49:44;53.97;;;25.67;;
9106;SDS011;4589;48.690;8.952;2024-03-08T11:52:13;52.87;;;24.37;;
9106;SDS011;4589;48.690;8.952;2024-03-08T11:54:43;54.20;;;27.20;;
9106;SDS011;4589;48.690;8.952;2024-03-08T11:57:25;61.33;;;28.03;;
9106;SDS011;4589;48.690;8.952;2024-03-08T11:59:51;50.67;;;26.10;;
9106;SDS011;4589;48.690;8.952;2024-03-08T12:02:18;48.33;;;24.97;;
9106;SDS011;4589;48.690;8.952;2024-03-08T12:04:46;56.23;;;27.57;;
9106;SDS011;4589;48.690;8.952;2024-03-08T12:07:12;49.33;;;25.33;;
9106;SDS011;4589;48.690;8.952;2024-03-08T12:09:39;47.60;;;25.30;;
9106;SDS011;4589;48.690;8.952;2024-03-08T12:12:06;52.40;;;25.47;;
9106;SDS011;4589;48.690;8.952;2024-03-08T12:14:35;44.07;;;24.43;;
9106;SDS011;4589;48.690;8.952;2024-03-08T12:17:02;48.53;;;24.47;;
9106;SDS011;4589;48.690;8.952;2024-03-08T12:19:29;59.03;;;26.73;;
9106;SDS011;4589;48.690;8.952;2024-03-08T12:21:55;59.33;;;28.40;;
9106;SDS011;4589;48.690;8.952;2024-03-08T12:24:21;57.80;;;26.80;;
9106;SDS011;4589;48.690;8.952;2024-03-08T12:26:47;52.57;;;27.30;;
9106;SDS011;4589;48.690;8.952;2024-03-08T12:29:20;61.60;;;28.17;;
9106;SDS011;4589;48.690;8.952;2024-03-08T12:31:52;51.00;;;24.70;;
9106;SDS011;4589;48.690;8.952;2024-03-08T12:34:23;52.93;;;24.90;;
9106;SDS011;4589;48.690;8.952;2024-03-08T12:36:50;54.70;;;26.00;;
9106;SDS011;4589;48.690;8.952;2024-03-08T12:39:20;50.50;;;25.60;;
9106;SDS011;4589;48.690;8.952;2024-03-08T12:41:47;52.23;;;25.67;;
9106;SDS011;4589;48.690;8.952;2024-03-08T12:44:14;49.53;;;24.63;;
9106;SDS011;4589;48.690;8.952;2024-03-08T12:46:40;48.47;;;25.37;;
9106;SDS011;4589;48.690;8.952;2024-03-08T12:49:07;45.77;;;24.10;;
9106;SDS011;4589;48.690;8.952;2024-03-08T12:51:34;43.03;;;23.97;;
9106;SDS011;4589;48.690;8.952;2024-03-08T12:54:00;41.37;;;23.20;;
9106;SDS011;4589;48.690;8.952;2024-03-08T12:56:30;48.03;;;24.70;;
9106;SDS011;4589;48.690;8.952;2024-03-08T12:58:57;38.90;;;22.10;;
9106;SDS011;4589;48.690;8.952;2024-03-08T13:01:23;38.37;;;22.57;;
9106;SDS011;4589;48.690;8.952;2024-03-08T13:03:49;30.83;;;20.17;;
9106;SDS011;4589;48.690;8.952;2024-03-08T13:06:14;30.23;;;20.20;;
9106;SDS011;4589;48.690;8.952;2024-03-08T13:08:40;32.27;;;20.83;;
9106;SDS011;4589;48.690;8.952;2024-03-08T13:11:06;34.87;;;21.23;;
9106;SDS011;4589;48.690;8.952;2024-03-08T13:13:33;33.87;;;20.30;;
9106;SDS011;4589;48.690;8.952;2024-03-08T13:16:02;33.17;;;20.40;;
9106;SDS011;4589;48.690;8.952;2024-03-08T13:18:28;29.80;;;19.40;;
9106;SDS011;4589;48.690;8.952;2024-03-08T13:20:54;32.57;;;19.30;;
9106;SDS011;4589;48.690;8.952;2024-03-08T13:23:19;37.87;;;20.00;;
9106;SDS011;4589;48.690;8.952;2024-03-08T13:25:45;29.77;;;18.30;;
9106;SDS011;4589;48.690;8.952;2024-03-08T13:28:12;32.97;;;16.93;;
9106;SDS011;4589;48.690;8.952;2024-03-08T13:30:38;27.63;;;18.20;;
9106;SDS011;4589;48.690;8.952;2024-03-08T13:33:04;23.23;;;15.90;;
9106;SDS011;4589;48.690;8.952;2024-03-08T13:35:33;23.80;;;17.70;;
9106;SDS011;4589;48.690;8.952;2024-03-08T13:37:59;24.37;;;17.27;;
9106;SDS011;4589;48.690;8.952;2024-03-08T13:40:28;25.83;;;17.33;;
9106;SDS011;4589;48.690;8.952;2024-03-08T13:42:53;28.87;;;17.40;;
9106;SDS011;4589;48.690;8.952;2024-03-08T13:45:19;27.63;;;19.10;;
9106;SDS011;4589;48.690;8.952;2024-03-08T13:47:49;28.37;;;18.10;;
9106;SDS011;4589;48.690;8.952;2024-03-08T13:50:16;31.30;;;18.93;;
9106;SDS011;4589;48.690;8.952;2024-03-08T13:52:46;33.23;;;19.90;;
9106;SDS011;4589;48.690;8.952;2024-03-08T13:55:14;30.90;;;18.33;;
9106;SDS011;4589;48.690;8.952;2024-03-08T13:57:40;28.80;;;19.40;;
9106;SDS011;4589;48.690;8.952;2024-03-08T14:00:05;28.07;;;18.00;;
9106;SDS011;4589;48.690;8.952;2024-03-08T14:02:32;34.40;;;21.20;;
9106;SDS011;4589;48.690;8.952;2024-03-08T14:04:58;30.93;;;20.00;;
9106;SDS011;4589;48.690;8.952;2024-03-08T14:07:27;30.70;;;18.93;;
9106;SDS011;4589;48.690;8.952;2024-03-08T14:09:54;26.33;;;17.10;;
9106;SDS011;4589;48.690;8.952;2024-03-08T14:12:19;35.57;;;20.70;;
9106;SDS011;4589;48.690;8.952;2024-03-08T14:14:45;33.40;;;20.10;;
9106;SDS011;4589;48.690;8.952;2024-03-08T14:17:10;37.57;;;19.87;;
9106;SDS011;4589;48.690;8.952;2024-03-08T14:19:41;36.77;;;21.30;;
9106;SDS011;4589;48.690;8.952;2024-03-08T14:22:07;43.57;;;23.50;;
9106;SDS011;4589;48.690;8.952;2024-03-08T14:24:35;38.87;;;21.23;;
9106;SDS011;4589;48.690;8.952;2024-03-08T14:27:01;36.60;;;21.57;;
9106;SDS011;4589;48.690;8.952;2024-03-08T14:29:28;38.63;;;21.20;;
9106;SDS011;4589;48.690;8.952;2024-03-08T14:31:57;41.20;;;22.30;;
9106;SDS011;4589;48.690;8.952;2024-03-08T14:34:24;39.57;;;22.30;;
9106;SDS011;4589;48.690;8.952;2024-03-08T14:36:54;34.43;;;22.30;;
9106;SDS011;4589;48.690;8.952;2024-03-08T14:39:20;42.63;;;22.90;;
9106;SDS011;4589;48.690;8.952;2024-03-08T14:41:47;39.10;;;21.23;;